createdAt,value
2018-05-17T00:01:09.320Z,100761.59
2018-05-17T00:03:35.238Z,100756.38
2018-05-17T00:06:01.142Z,100759.02
2018-05-17T00:08:27.098Z,100764.34
2018-05-17T00:10:53.033Z,100765.30
2018-05-17T00:13:18.950Z,100765.98
2018-05-17T00:15:48.712Z,100765.79
2018-05-17T00:18:14.646Z,100764.62
2018-05-17T00:20:40.562Z,100763.86
2018-05-17T00:23:06.493Z,100768.36
2018-05-17T00:25:32.401Z,100765.59
2018-05-17T00:27:58.383Z,100766.24
2018-05-17T00:30:24.300Z,100772.97
2018-05-17T00:32:50.212Z,100770.18
2018-05-17T00:35:16.153Z,100769.94
2018-05-17T00:37:42.043Z,100774.39
2018-05-17T00:40:07.977Z,100772.83
2018-05-17T00:42:33.885Z,100778.63
2018-05-17T00:44:59.816Z,100768.73
2018-05-17T00:47:25.733Z,100768.67
2018-05-17T00:49:51.648Z,100769.21
2018-05-17T00:52:17.612Z,100768.72
2018-05-17T00:54:43.511Z,100767.79
2018-05-17T00:57:09.399Z,100768.61
2018-05-17T00:59:35.327Z,100770.66
2018-05-17T01:02:01.296Z,100765.24
2018-05-17T01:04:27.217Z,100764.11
2018-05-17T01:06:53.151Z,100763.81
2018-05-17T01:09:19.080Z,100766.42
2018-05-17T01:11:45.018Z,100768.52
2018-05-17T01:14:10.950Z,100768.05
2018-05-17T01:16:36.901Z,100775.10
2018-05-17T01:19:02.836Z,100771.83
2018-05-17T01:21:28.782Z,100772.75
2018-05-17T01:23:54.686Z,100774.24
2018-05-17T01:26:20.588Z,100778.38
2018-05-17T01:28:46.520Z,100783.90
2018-05-17T01:31:12.432Z,100779.52
2018-05-17T01:33:38.364Z,100793.42
2018-05-17T01:36:04.284Z,100796.10
2018-05-17T01:38:30.223Z,100790.54
2018-05-17T01:40:56.123Z,100792.91
2018-05-17T01:43:22.040Z,100780.23
2018-05-17T01:45:47.966Z,100787.38
2018-05-17T01:48:13.898Z,100790.17
2018-05-17T01:50:39.834Z,100797.51
2018-05-17T01:53:05.756Z,100797.58
2018-05-17T01:55:31.688Z,100797.67
2018-05-17T01:57:57.618Z,100812.93
2018-05-17T02:00:23.540Z,100811.37
2018-05-17T02:02:49.470Z,100812.60
2018-05-17T02:05:15.406Z,100828.70
2018-05-17T02:07:41.305Z,100814.68
2018-05-17T02:10:07.231Z,100822.88
2018-05-17T02:12:33.149Z,100822.48
2018-05-17T02:14:59.073Z,100822.58
2018-05-17T02:17:24.987Z,100819.42
2018-05-17T02:19:50.935Z,100821.85
2018-05-17T02:22:16.875Z,100827.67
2018-05-17T02:24:42.774Z,100828.62
2018-05-17T02:27:08.715Z,100830.22
2018-05-17T02:29:34.612Z,100825.80
2018-05-17T02:32:00.545Z,100830.42
2018-05-17T02:34:26.474Z,100833.09
2018-05-17T02:36:52.408Z,100831.89
2018-05-17T02:39:18.325Z,100836.91
2018-05-17T02:41:44.269Z,100841.12
2018-05-17T02:44:10.204Z,100844.03
2018-05-17T02:46:36.168Z,100838.49
2018-05-17T02:49:02.114Z,100840.05
2018-05-17T02:51:28.021Z,100840.36
2018-05-17T02:53:53.951Z,100841.82
2018-05-17T02:56:19.890Z,100841.06
2018-05-17T02:58:45.814Z,100840.47
2018-05-17T03:01:11.726Z,100831.86
2018-05-17T03:03:37.676Z,100834.70
2018-05-17T03:06:03.581Z,100836.41
2018-05-17T03:08:29.524Z,100842.30
2018-05-17T03:10:55.425Z,100845.04
2018-05-17T03:13:21.352Z,100857.92
2018-05-17T03:15:47.266Z,100843.72
2018-05-17T03:18:13.204Z,100848.69
2018-05-17T03:20:39.147Z,100842.92
2018-05-17T03:23:05.061Z,100846.25
2018-05-17T03:25:30.992Z,100851.58
2018-05-17T03:27:56.914Z,100853.33
2018-05-17T03:30:22.845Z,100865.91
2018-05-17T03:32:48.777Z,100857.59
2018-05-17T03:35:14.688Z,100861.43
2018-05-17T03:37:40.595Z,100863.58
2018-05-17T03:40:06.529Z,100867.05
2018-05-17T03:42:32.429Z,100876.17
2018-05-17T03:44:58.353Z,100868.18
2018-05-17T03:47:24.283Z,100872.12
2018-05-17T03:49:50.203Z,100880.07
2018-05-17T03:52:16.125Z,100877.52
2018-05-17T03:54:42.054Z,100880.28
2018-05-17T03:57:07.969Z,100882.16
2018-05-17T03:59:33.891Z,100886.94
2018-05-17T04:02:12.183Z,100880.28
2018-05-17T04:04:50.569Z,100880.90
2018-05-17T04:07:16.487Z,100879.01
2018-05-17T04:09:42.397Z,100892.95
2018-05-17T04:12:08.314Z,100887.36
2018-05-17T04:14:34.239Z,100892.55
2018-05-17T04:17:00.196Z,100904.98
2018-05-17T04:19:26.108Z,100893.37
2018-05-17T04:21:52.063Z,100897.61
2018-05-17T04:24:18.024Z,100907.34
2018-05-17T04:26:43.944Z,100901.48
2018-05-17T04:29:09.890Z,100906.46
2018-05-17T04:31:35.809Z,100911.28
2018-05-17T04:34:01.736Z,100903.84
2018-05-17T04:36:27.656Z,100907.51
2018-05-17T04:38:53.613Z,100906.90
2018-05-17T04:41:19.541Z,100907.10
2018-05-17T04:43:45.463Z,100909.19
2018-05-17T04:46:11.391Z,100917.94
2018-05-17T04:48:37.316Z,100915.55
2018-05-17T04:51:03.265Z,100917.37
2018-05-17T04:53:29.167Z,100920.50
2018-05-17T04:55:55.106Z,100915.75
2018-05-17T04:58:21.027Z,100924.83
2018-05-17T05:00:46.955Z,100927.38
2018-05-17T05:03:12.873Z,100932.20
2018-05-17T05:05:38.804Z,100928.33
2018-05-17T05:08:04.749Z,100923.58
2018-05-17T05:10:30.659Z,100932.70
2018-05-17T05:12:56.589Z,100928.17
2018-05-17T05:15:22.502Z,100931.17
2018-05-17T05:17:48.443Z,100929.23
2018-05-17T05:20:14.377Z,100936.17
2018-05-17T05:22:40.293Z,100936.92
2018-05-17T05:25:06.212Z,100935.42
2018-05-17T05:27:32.168Z,100935.95
2018-05-17T05:29:58.088Z,100937.17
2018-05-17T05:32:24.049Z,100933.23
2018-05-17T05:34:49.986Z,100940.20
2018-05-17T05:37:15.894Z,100945.03
2018-05-17T05:39:41.814Z,100953.38
2018-05-17T05:42:07.735Z,100947.48
2018-05-17T05:44:33.681Z,100950.70
2018-05-17T05:46:59.619Z,100953.19
2018-05-17T05:49:25.579Z,100946.04
2018-05-17T05:51:51.459Z,100954.16
2018-05-17T05:54:17.394Z,100951.81
2018-05-17T05:56:43.319Z,100955.63
2018-05-17T05:59:09.248Z,100948.41
2018-05-17T06:01:35.202Z,100949.55
2018-05-17T06:04:01.137Z,100961.77
2018-05-17T06:06:27.094Z,100957.87
2018-05-17T06:08:53.003Z,100953.70
2018-05-17T06:11:18.937Z,100968.38
2018-05-17T06:13:44.866Z,100954.56
2018-05-17T06:16:10.801Z,100968.44
2018-05-17T06:18:36.717Z,100963.10
2018-05-17T06:21:02.686Z,100970.10
2018-05-17T06:23:28.592Z,100976.56
2018-05-17T06:25:54.517Z,100983.72
2018-05-17T06:28:20.425Z,100967.56
2018-05-17T06:30:46.346Z,100971.66
2018-05-17T06:33:12.293Z,100966.86
2018-05-17T06:35:38.193Z,100970.91
2018-05-17T06:38:04.131Z,100971.41
2018-05-17T06:40:30.049Z,100972.69
2018-05-17T06:42:55.991Z,100963.41
2018-05-17T06:45:21.917Z,100971.95
2018-05-17T06:47:47.875Z,100966.33
2018-05-17T06:50:13.808Z,100970.89
2018-05-17T06:52:39.727Z,100963.91
2018-05-17T06:55:05.655Z,100963.41
2018-05-17T06:57:31.581Z,100973.29
2018-05-17T06:59:57.507Z,100966.19
2018-05-17T07:02:23.432Z,100965.89
2018-05-17T07:04:49.358Z,100974.44
2018-05-17T07:07:15.273Z,100966.04
2018-05-17T07:09:41.197Z,100969.18
2018-05-17T07:12:07.136Z,100967.80
2018-05-17T07:14:33.041Z,100976.27
2018-05-17T07:16:58.951Z,100976.12
2018-05-17T07:19:24.857Z,100978.60
2018-05-17T07:21:50.808Z,100976.59
2018-05-17T07:24:16.734Z,100976.37
2018-05-17T07:26:42.674Z,100979.41
2018-05-17T07:29:08.591Z,100982.14
2018-05-17T07:31:34.540Z,100977.36
2018-05-17T07:34:00.481Z,100985.06
2018-05-17T07:36:26.438Z,100988.12
2018-05-17T07:38:52.412Z,100979.73
2018-05-17T07:41:18.346Z,100980.11
2018-05-17T07:43:44.302Z,100982.04
2018-05-17T07:46:10.223Z,100983.48
2018-05-17T07:48:36.167Z,100984.08
2018-05-17T07:51:02.063Z,100982.63
2018-05-17T07:53:28.001Z,100990.64
2018-05-17T07:55:53.925Z,100983.91
2018-05-17T07:58:19.880Z,100990.91
2018-05-17T08:00:45.814Z,100995.07
2018-05-17T08:03:11.753Z,100995.41
2018-05-17T08:05:37.669Z,100999.09
2018-05-17T08:08:03.629Z,101007.70
2018-05-17T08:10:29.549Z,101005.68
2018-05-17T08:12:55.457Z,101005.45
2018-05-17T08:15:21.378Z,101011.08
2018-05-17T08:17:47.302Z,101006.89
2018-05-17T08:20:13.242Z,101014.82
2018-05-17T08:22:39.190Z,101019.25
2018-05-17T08:25:05.124Z,101022.20
2018-05-17T08:27:31.067Z,101022.92
2018-05-17T08:29:56.982Z,101016.27
2018-05-17T08:32:22.895Z,101016.81
2018-05-17T08:34:48.867Z,101024.83
2018-05-17T08:37:14.802Z,101017.26
2018-05-17T08:39:40.714Z,101017.61
2018-05-17T08:42:06.643Z,101012.06
2018-05-17T08:44:32.574Z,101020.67
2018-05-17T08:46:58.498Z,101017.77
2018-05-17T08:49:24.430Z,101034.20
2018-05-17T08:51:50.392Z,101028.12
2018-05-17T08:54:16.325Z,101030.42
2018-05-17T08:56:42.266Z,101024.71
2018-05-17T08:59:08.187Z,101030.26
2018-05-17T09:01:34.089Z,101031.09
2018-05-17T09:04:00.043Z,101025.66
2018-05-17T09:06:25.942Z,101022.42
2018-05-17T09:08:51.873Z,101025.30
2018-05-17T09:11:17.780Z,101015.16
2018-05-17T09:13:43.715Z,101026.71
2018-05-17T09:16:10.041Z,101025.53
2018-05-17T09:18:36.148Z,101025.65
2018-05-17T09:21:02.078Z,101027.37
2018-05-17T09:23:28.008Z,101039.44
2018-05-17T09:25:53.949Z,101067.69
2018-05-17T09:28:19.885Z,101037.30
2018-05-17T09:30:45.809Z,101042.58
2018-05-17T09:33:11.743Z,101037.17
2018-05-17T09:35:37.720Z,101034.88
2018-05-17T09:38:03.705Z,101060.08
2018-05-17T09:40:29.653Z,101062.67
2018-05-17T09:42:55.571Z,101048.63
2018-05-17T09:45:21.475Z,101054.05
2018-05-17T09:47:47.397Z,101062.78
2018-05-17T09:50:13.321Z,101054.45
2018-05-17T09:52:39.277Z,101045.59
2018-05-17T09:55:05.241Z,101072.98
2018-05-17T09:57:31.137Z,101052.76
2018-05-17T09:59:57.039Z,101051.45
2018-05-17T10:02:22.996Z,101062.66
2018-05-17T10:04:48.935Z,101076.20
2018-05-17T10:07:14.884Z,101064.91
2018-05-17T10:09:40.801Z,101065.34
2018-05-17T10:12:06.728Z,101060.81
2018-05-17T10:14:32.710Z,101064.58
2018-05-17T10:16:58.627Z,101079.14
2018-05-17T10:19:24.566Z,101066.34
2018-05-17T10:21:50.489Z,101058.09
2018-05-17T10:24:16.432Z,101054.35
2018-05-17T10:26:42.358Z,101057.48
2018-05-17T10:29:08.306Z,101055.54
2018-05-17T10:31:34.242Z,101053.91
2018-05-17T10:34:00.198Z,101054.12
2018-05-17T10:36:26.100Z,101062.43
2018-05-17T10:38:52.003Z,101059.52
2018-05-17T10:41:17.936Z,101047.80
2018-05-17T10:43:43.870Z,101053.05
2018-05-17T10:46:09.830Z,101061.14
2018-05-17T10:48:35.758Z,101049.98
2018-05-17T10:51:01.702Z,101053.03
2018-05-17T10:53:27.620Z,101041.40
2018-05-17T10:55:53.558Z,101038.06
2018-05-17T10:58:19.467Z,101049.56
2018-05-17T11:00:45.408Z,101047.86
2018-05-17T11:03:11.343Z,101050.00
2018-05-17T11:05:37.288Z,101044.88
2018-05-17T11:08:03.241Z,101051.52
2018-05-17T11:10:29.146Z,101055.50
2018-05-17T11:12:55.081Z,101060.81
2018-05-17T11:15:21.004Z,101054.00
2018-05-17T11:17:46.945Z,101052.41
2018-05-17T11:20:12.871Z,101044.89
2018-05-17T11:22:38.815Z,101040.06
2018-05-17T11:25:04.800Z,101043.70
2018-05-17T11:27:31.320Z,101050.95
2018-05-17T11:29:57.274Z,101054.86
2018-05-17T11:32:23.209Z,101036.30
2018-05-17T11:34:49.146Z,101041.09
2018-05-17T11:37:15.088Z,101037.63
2018-05-17T11:39:41.058Z,101035.87
2018-05-17T11:42:07.001Z,101029.86
2018-05-17T11:44:32.972Z,101024.89
2018-05-17T11:46:58.913Z,101026.92
2018-05-17T11:49:24.856Z,101024.73
2018-05-17T11:51:50.762Z,101035.28
2018-05-17T11:54:16.684Z,101029.84
2018-05-17T11:56:42.600Z,101026.27
2018-05-17T11:59:08.564Z,101034.14
2018-05-17T12:01:34.606Z,101032.80
2018-05-17T12:04:00.472Z,101027.51
2018-05-17T12:06:26.900Z,101017.75
2018-05-17T12:08:52.812Z,101016.27
2018-05-17T12:11:18.772Z,101029.10
2018-05-17T12:13:44.686Z,101026.22
2018-05-17T12:16:10.621Z,101003.87
2018-05-17T12:18:36.560Z,101010.23
2018-05-17T12:21:02.534Z,101013.89
2018-05-17T12:23:28.467Z,101004.38
2018-05-17T12:25:54.412Z,100997.95
2018-05-17T12:28:20.321Z,101001.95
2018-05-17T12:30:46.238Z,101008.18
2018-05-17T12:33:12.148Z,101020.59
2018-05-17T12:35:38.105Z,101009.07
2018-05-17T12:38:04.039Z,101007.19
2018-05-17T12:40:29.976Z,101015.86
2018-05-17T12:42:56.035Z,101021.20
2018-05-17T12:45:21.855Z,101006.66
2018-05-17T12:47:47.813Z,101011.85
2018-05-17T12:50:13.751Z,101012.28
2018-05-17T12:52:39.681Z,101011.83
2018-05-17T12:55:05.606Z,101008.62
2018-05-17T12:57:31.525Z,101010.48
2018-05-17T12:59:58.619Z,101013.17
2018-05-17T13:02:24.544Z,101005.95
2018-05-17T13:04:50.487Z,101009.52
2018-05-17T13:07:16.407Z,101002.92
2018-05-17T13:09:42.347Z,101008.01
2018-05-17T13:12:08.229Z,101009.09
2018-05-17T13:14:34.169Z,100996.10
2018-05-17T13:17:00.105Z,100981.28
2018-05-17T13:19:26.040Z,100989.26
2018-05-17T13:21:51.964Z,100991.30
2018-05-17T13:24:17.895Z,100972.89
2018-05-17T13:26:43.834Z,100973.87
2018-05-17T13:29:09.765Z,100967.91
2018-05-17T13:31:35.713Z,100964.43
2018-05-17T13:34:01.621Z,100976.84
2018-05-17T13:36:27.586Z,100970.33
2018-05-17T13:38:53.498Z,100958.83
2018-05-17T13:41:19.452Z,100971.59
2018-05-17T13:43:45.370Z,100978.70
2018-05-17T13:46:11.272Z,100960.36
2018-05-17T13:48:37.221Z,100970.23
2018-05-17T13:51:03.141Z,100964.92
2018-05-17T13:53:29.100Z,100964.70
2018-05-17T13:55:55.034Z,100963.08
2018-05-17T13:58:21.010Z,100959.89
2018-05-17T14:00:46.925Z,100954.67
2018-05-17T14:03:12.856Z,100963.71
2018-05-17T14:05:38.767Z,100972.90
2018-05-17T14:08:04.690Z,100963.64
2018-05-17T14:10:30.633Z,100964.91
2018-05-17T14:12:56.569Z,100957.06
2018-05-17T14:15:22.561Z,100960.73
2018-05-17T14:17:48.455Z,100963.67
2018-05-17T14:20:14.389Z,100961.61
2018-05-17T14:22:40.345Z,100963.27
2018-05-17T14:25:06.295Z,100962.74
2018-05-17T14:27:32.249Z,100961.12
2018-05-17T14:29:58.192Z,100955.64
2018-05-17T14:32:24.133Z,100965.81
2018-05-17T14:34:50.078Z,100963.64
2018-05-17T14:37:16.013Z,100961.80
2018-05-17T14:39:41.962Z,100969.63
2018-05-17T14:42:07.886Z,100963.55
2018-05-17T14:44:33.798Z,100961.84
2018-05-17T14:46:59.757Z,100959.19
2018-05-17T14:49:25.745Z,100968.13
2018-05-17T14:51:51.668Z,100966.31
2018-05-17T14:54:17.583Z,100956.80
2018-05-17T14:56:43.527Z,100959.00
2018-05-17T14:59:09.452Z,100965.24
2018-05-17T15:01:35.413Z,100956.94
2018-05-17T15:04:01.362Z,100956.98
2018-05-17T15:06:27.330Z,100951.67
2018-05-17T15:08:53.289Z,100952.45
2018-05-17T15:11:19.260Z,100956.57
2018-05-17T15:13:45.152Z,100958.96
2018-05-17T15:16:11.068Z,100943.08
2018-05-17T15:18:37.000Z,100953.97
2018-05-17T15:21:02.924Z,100944.69
2018-05-17T15:23:28.868Z,100966.81
2018-05-17T15:25:54.794Z,100970.45
2018-05-17T15:28:20.733Z,100948.72
2018-05-17T15:30:46.667Z,100950.61
2018-05-17T15:33:12.605Z,100962.68
2018-05-17T15:35:38.567Z,100963.03
2018-05-17T15:38:04.521Z,100952.63
2018-05-17T15:40:30.443Z,100952.36
2018-05-17T15:42:56.383Z,100950.88
2018-05-17T15:45:22.321Z,100952.27
2018-05-17T15:47:48.257Z,100948.00
2018-05-17T15:50:14.197Z,100955.98
2018-05-17T15:52:40.131Z,100958.95
2018-05-17T15:55:06.054Z,100956.78
2018-05-17T15:57:31.990Z,100952.05
2018-05-17T15:59:57.939Z,100952.11
2018-05-17T16:02:23.895Z,100966.20
2018-05-17T16:04:49.819Z,100968.16
2018-05-17T16:07:15.770Z,100962.72
2018-05-17T16:09:41.691Z,100971.14
2018-05-17T16:12:07.627Z,100967.98
2018-05-17T16:14:33.663Z,100972.41
2018-05-17T16:16:59.560Z,100967.66
2018-05-17T16:19:25.506Z,100979.86
2018-05-17T16:21:51.434Z,100975.34
2018-05-17T16:24:17.416Z,100979.95
2018-05-17T16:26:43.320Z,100979.77
2018-05-17T16:29:09.271Z,100992.42
2018-05-17T16:31:35.221Z,100995.10
2018-05-17T16:34:01.170Z,101008.74
2018-05-17T16:36:27.116Z,101005.30
2018-05-17T16:38:53.104Z,101005.84
2018-05-17T16:41:19.069Z,101029.40
2018-05-17T16:43:45.049Z,101030.45
2018-05-17T16:46:11.008Z,101018.25
2018-05-17T16:48:37.002Z,101028.85
2018-05-17T16:51:02.905Z,101031.23
2018-05-17T16:53:28.821Z,101039.09
2018-05-17T16:55:54.773Z,101037.31
2018-05-17T16:58:21.020Z,101042.58
2018-05-17T17:00:46.731Z,101045.95
2018-05-17T17:03:12.736Z,101044.34
2018-05-17T17:05:38.694Z,101035.62
2018-05-17T17:08:04.615Z,101041.52
2018-05-17T17:10:30.582Z,101050.11
2018-05-17T17:12:56.553Z,101051.97
2018-05-17T17:15:22.492Z,101063.90
2018-05-17T17:17:48.501Z,101052.62
2018-05-17T17:20:14.461Z,101058.80
2018-05-17T17:22:40.470Z,101067.53
2018-05-17T17:25:06.434Z,101062.10
2018-05-17T17:27:32.395Z,101061.59
2018-05-17T17:29:58.330Z,101066.59
2018-05-17T17:32:24.294Z,101063.87
2018-05-17T17:34:50.234Z,101062.42
2018-05-17T17:37:16.232Z,101055.35
2018-05-17T17:39:42.203Z,101057.44
2018-05-17T17:42:08.189Z,101060.75
2018-05-17T17:44:34.109Z,101060.80
2018-05-17T17:47:00.060Z,101061.69
2018-05-17T17:49:26.096Z,101069.60
2018-05-17T17:51:52.930Z,101067.94
2018-05-17T17:54:19.234Z,101071.72
2018-05-17T17:56:45.216Z,101066.91
2018-05-17T17:59:11.194Z,101069.50
2018-05-17T18:01:37.178Z,101068.72
2018-05-17T18:04:04.040Z,101061.34
2018-05-17T18:06:30.127Z,101064.31
2018-05-17T18:08:56.174Z,101060.79
2018-05-17T18:11:22.186Z,101071.88
2018-05-17T18:13:48.147Z,101067.72
2018-05-17T18:16:14.148Z,101070.09
2018-05-17T18:18:40.115Z,101065.62
2018-05-17T18:21:07.035Z,101074.61
2018-05-17T18:23:33.982Z,101072.56
2018-05-17T18:26:00.071Z,101066.95
2018-05-17T18:28:26.115Z,101080.69
2018-05-17T18:30:52.095Z,101084.22
2018-05-17T18:33:18.083Z,101085.22
2018-05-17T18:35:45.075Z,101083.90
2018-05-17T18:38:11.350Z,101083.70
2018-05-17T18:40:37.332Z,101079.24
2018-05-17T18:43:03.312Z,101080.72
2018-05-17T18:45:29.261Z,101070.89
2018-05-17T18:47:55.281Z,101081.87
2018-05-17T18:50:21.237Z,101085.60
2018-05-17T18:52:47.285Z,101088.33
2018-05-17T18:55:13.329Z,101094.09
2018-05-17T18:57:39.312Z,101094.44
2018-05-17T19:00:05.308Z,101100.17
2018-05-17T19:02:32.270Z,101103.17
2018-05-17T19:04:58.248Z,101109.28
2018-05-17T19:07:25.072Z,101107.05
2018-05-17T19:09:51.942Z,101109.64
2018-05-17T19:12:18.156Z,101108.45
2018-05-17T19:14:44.542Z,101111.59
2018-05-17T19:17:10.535Z,101115.70
2018-05-17T19:19:36.532Z,101123.65
2018-05-17T19:22:03.553Z,101120.66
2018-05-17T19:24:29.606Z,101131.26
2018-05-17T19:26:55.616Z,101125.58
2018-05-17T19:29:21.916Z,101133.06
2018-05-17T19:31:49.545Z,101130.95
2018-05-17T19:34:20.067Z,101137.29
2018-05-17T19:36:47.357Z,101154.72
2018-05-17T19:39:14.125Z,101156.45
2018-05-17T19:41:40.402Z,101148.54
2018-05-17T19:44:06.479Z,101148.34
2018-05-17T19:46:32.503Z,101154.45
2018-05-17T19:48:58.427Z,101153.50
2018-05-17T19:51:25.344Z,101154.58
2018-05-17T19:53:52.143Z,101159.33
2018-05-17T19:56:18.091Z,101154.28
2018-05-17T19:58:44.067Z,101157.75
2018-05-17T20:01:10.084Z,101152.91
2018-05-17T20:03:36.090Z,101152.58
2018-05-17T20:06:02.010Z,101157.29
2018-05-17T20:08:28.863Z,101155.18
2018-05-17T20:10:54.914Z,101158.29
2018-05-17T20:13:20.868Z,101151.83
2018-05-17T20:15:47.499Z,101154.02
2018-05-17T20:18:14.451Z,101149.97
2018-05-17T20:20:41.263Z,101154.07
2018-05-17T20:23:07.178Z,101150.80
2018-05-17T20:25:33.215Z,101152.93
2018-05-17T20:27:59.243Z,101157.77
2018-05-17T20:30:25.245Z,101155.05
2018-05-17T20:32:51.204Z,101159.98
2018-05-17T20:35:17.133Z,101155.33
2018-05-17T20:37:43.120Z,101152.58
2018-05-17T20:40:09.071Z,101154.34
2018-05-17T20:42:35.967Z,101154.73
2018-05-17T20:45:01.908Z,101156.66
2018-05-17T20:47:27.855Z,101146.72
2018-05-17T20:49:53.811Z,101157.18
2018-05-17T20:52:19.782Z,101153.98
2018-05-17T20:54:45.736Z,101152.22
2018-05-17T20:57:11.663Z,101154.47
2018-05-17T20:59:37.592Z,101142.56
2018-05-17T21:02:03.582Z,101150.14
2018-05-17T21:04:29.546Z,101158.38
2018-05-17T21:06:55.518Z,101155.62
2018-05-17T21:09:21.432Z,101159.84
2018-05-17T21:11:47.354Z,101171.72
2018-05-17T21:14:13.348Z,101153.94
2018-05-17T21:16:39.336Z,101150.47
2018-05-17T21:19:05.286Z,101148.07
2018-05-17T21:21:31.301Z,101150.03
2018-05-17T21:23:57.233Z,101167.55
2018-05-17T21:26:23.216Z,101154.97
2018-05-17T21:28:49.123Z,101163.55
2018-05-17T21:31:15.055Z,101156.56
2018-05-17T21:33:41.001Z,101155.14
2018-05-17T21:36:06.959Z,101151.84
2018-05-17T21:38:32.910Z,101158.61
2018-05-17T21:40:58.845Z,101150.74
2018-05-17T21:43:24.801Z,101151.26
2018-05-17T21:45:50.758Z,101152.41
2018-05-17T21:48:16.764Z,101157.59
2018-05-17T21:50:42.717Z,101152.21
2018-05-17T21:53:08.702Z,101149.17
2018-05-17T21:55:34.641Z,101153.42
2018-05-17T21:58:00.607Z,101158.61
2018-05-17T22:00:26.553Z,101154.34
2018-05-17T22:02:52.473Z,101160.97
2018-05-17T22:05:18.432Z,101155.06
2018-05-17T22:07:44.354Z,101156.94
2018-05-17T22:10:10.288Z,101152.19
2018-05-17T22:12:36.256Z,101148.79
2018-05-17T22:15:02.264Z,101154.98
2018-05-17T22:17:28.188Z,101144.62
2018-05-17T22:19:54.125Z,101146.35
2018-05-17T22:22:20.058Z,101148.89
2018-05-17T22:24:46.014Z,101149.94
2018-05-17T22:27:11.945Z,101150.11
2018-05-17T22:29:37.860Z,101144.22
2018-05-17T22:32:03.784Z,101146.55
2018-05-17T22:34:29.720Z,101153.17
2018-05-17T22:36:55.645Z,101146.05
2018-05-17T22:39:21.570Z,101149.75
2018-05-17T22:41:47.488Z,101154.47
2018-05-17T22:44:13.421Z,101147.38
2018-05-17T22:46:39.352Z,101150.70
2018-05-17T22:49:06.129Z,101153.59
2018-05-17T22:51:32.055Z,101148.36
2018-05-17T22:53:58.015Z,101152.13
2018-05-17T22:56:36.222Z,101149.72
2018-05-17T22:59:02.130Z,101154.61
2018-05-17T23:01:28.047Z,101141.78
2018-05-17T23:03:53.972Z,101142.48
2018-05-17T23:06:19.881Z,101132.16
2018-05-17T23:08:45.821Z,101133.98
2018-05-17T23:11:11.782Z,101135.34
2018-05-17T23:13:37.701Z,101139.99
2018-05-17T23:16:03.645Z,101141.13
2018-05-17T23:18:29.560Z,101141.78
2018-05-17T23:20:55.501Z,101140.03
2018-05-17T23:23:21.441Z,101133.16
2018-05-17T23:25:47.346Z,101135.13
2018-05-17T23:28:13.272Z,101130.52
2018-05-17T23:30:39.224Z,101136.08
2018-05-17T23:33:05.168Z,101135.38
2018-05-17T23:35:31.102Z,101136.34
2018-05-17T23:37:57.037Z,101147.59
2018-05-17T23:40:35.236Z,101133.35
2018-05-17T23:43:01.176Z,101138.01
2018-05-17T23:45:27.101Z,101134.17
2018-05-17T23:47:53.043Z,101140.17
2018-05-17T23:50:18.979Z,101137.23
2018-05-17T23:52:44.928Z,101128.37
2018-05-17T23:55:10.868Z,101133.80
2018-05-17T23:57:36.788Z,101138.37
